Radiosonde details



Informationen :

Serial : X3123484
Type : RS41-SGE
Frequency : 403.000MHz
Launchsite : Keflavikurflugvollur
Nearest town : Vogar, IS (7.3km)

Altitude (Max) : 26874m at 2026-08-31 00:15:42
Speed (Max) : 44km/h at altitude 22487m

Average speed : 20km/h
Average ascent rate : 6m/s
Average descent rate : -23m/s
Ascent rate (Max) : 9.3m/s
Descent rate (Max): -60.9m/s

First frame :
DL9RDZ-2 at 2026-08-30 23:04:23 at altitude 1579m (OG: 1537m)
Last frame :
DL9RDZ-1 at 2026-08-31 00:33:59 at altitude 219m (OG: 177m)

Flighttime : 1h29m36s
Ascent time : 1h11m19s
Descent time : 18m17s
Uptime : -
Killtimer : 8h12m

Distance (Straight line distance): 18km

Distance (Route):


Frames : 380


Measurement :

Temperature : 8.1°C
Humidity : 70.7%
Pressure : 0hPa


Vertical profile (SkewT) :


Elevation profile :



Receiving stations :


Receiver Frames First received Last received
DL9RDZ-1 380 2026-08-30 23:04:23 2026-08-31 00:33:59

Share per receiver :



All frames :


Receiver Date Latitude Longitude Direction Speed Altitude Climb Temperature Humidity Pressure Voltage Killtimer Uptime BKT XDATA
DL9RDZ-12026-08-31 00:33:5964.03972-22.31713283°24km/h219m-13.3m/s8.1°C70.7%0hPa0V08:12:0000:00:0000:00:00
DL9RDZ-12026-08-31 00:33:4664.03930-22.31509303°29km/h400m-14.1m/s7.2°C78.8%0hPa0V08:12:0000:00:0000:00:00
DL9RDZ-12026-08-31 00:33:2264.03856-22.31174293°31km/h701m-13.8m/s5.7°C55.2%0hPa0V08:13:0000:00:0000:00:00
DL9RDZ-12026-08-31 00:33:1164.03826-22.31003288°27km/h847m-13.6m/s4.4°C59.2%0hPa0V08:13:0000:00:0000:00:00
DL9RDZ-12026-08-31 00:32:5764.03796-22.30800293°27km/h1031m-14.0m/s2.8°C62.3%0hPa0V08:13:0000:00:0000:00:00
DL9RDZ-12026-08-31 00:32:4764.03769-22.30655302°29km/h1162m-14.2m/s1.8°C62.1%0hPa0V08:13:0000:00:0000:00:00
DL9RDZ-12026-08-31 00:32:3064.03714-22.30453307°20km/h1393m-14.2m/s0.5°C60.9%0hPa0V08:14:0000:00:0000:00:00
DL9RDZ-12026-08-31 00:32:1964.03683-22.30337302°20km/h1547m-14.6m/s-0.9°C63.9%0hPa0V08:14:0000:00:0000:00:00
DL9RDZ-12026-08-31 00:32:0864.03652-22.30227310°22km/h1700m-14.8m/s-1.9°C58.7%0hPa0V08:14:0000:00:0000:00:00
DL9RDZ-12026-08-31 00:31:5764.03619-22.30117310°24km/h1857m-14.0m/s-3.3°C71.3%0hPa0V08:14:0000:00:0000:00:00
DL9RDZ-12026-08-31 00:31:4764.03584-22.30018312°24km/h1998m-14.8m/s-4.3°C86.6%0hPa0V08:14:0000:00:0000:00:00
DL9RDZ-12026-08-31 00:31:3764.03545-22.29920320°24km/h2140m-15.0m/s-5.0°C84.1%0hPa0V08:15:0000:00:0000:00:00
DL9RDZ-12026-08-31 00:31:2764.03491-22.29819326°24km/h2297m-14.6m/s-5.7°C82.7%0hPa0V08:15:0000:00:0000:00:00
DL9RDZ-12026-08-31 00:31:0764.03425-22.29674304°15km/h2569m-15.2m/s-6.1°C56.1%0hPa0V08:15:0000:00:0000:00:00
DL9RDZ-12026-08-31 00:30:5664.03403-22.29601308°11km/h2727m-14.5m/s-7.5°C60.5%0hPa0V08:15:0000:00:0000:00:00
DL9RDZ-12026-08-31 00:30:4564.03377-22.29530307°16km/h2882m-14.6m/s-8.9°C65.4%0hPa0V08:16:0000:00:0000:00:00
DL9RDZ-12026-08-31 00:30:3564.03347-22.29443309°20km/h3039m-15.4m/s-10.0°C63.6%0hPa0V08:16:0000:00:0000:00:00
DL9RDZ-12026-08-31 00:30:2464.03312-22.29345311°20km/h3200m-15.1m/s-11.3°C67.5%0hPa0V08:16:0000:00:0000:00:00
DL9RDZ-12026-08-31 00:30:1364.03275-22.29268319°18km/h3346m-15.8m/s-12.6°C74.3%0hPa0V08:16:0000:00:0000:00:00
DL9RDZ-12026-08-31 00:30:0364.03242-22.29180300°20km/h3496m-15.6m/s-13.4°C63.0%0hPa0V08:16:0000:00:0000:00:00
DL9RDZ-12026-08-31 00:29:5264.03222-22.29069289°16km/h3671m-16.9m/s-14.8°C69.7%0hPa0V08:17:0000:00:0000:00:00
DL9RDZ-12026-08-31 00:29:4264.03209-22.28970288°18km/h3830m-15.7m/s-16.4°C77.0%0hPa0V08:17:0000:00:0000:00:00
DL9RDZ-12026-08-31 00:29:3164.03187-22.28861307°18km/h3997m-16.0m/s-17.5°C73.3%0hPa0V08:17:0000:00:0000:00:00
DL9RDZ-12026-08-31 00:29:2064.03158-22.28781311°16km/h4166m-15.8m/s-18.9°C83.9%0hPa0V08:17:0000:00:0000:00:00
DL9RDZ-12026-08-31 00:29:0964.03132-22.28719309°13km/h4335m-16.3m/s-19.8°C66.0%0hPa0V08:18:0000:00:0000:00:00
DL9RDZ-12026-08-31 00:28:5864.03107-22.28648322°15km/h4507m-16.1m/s-21.3°C70.2%0hPa0V08:18:0000:00:0000:00:00
DL9RDZ-12026-08-31 00:28:4764.03082-22.28598331°11km/h4678m-16.2m/s-22.7°C86.6%0hPa0V08:18:0000:00:0000:00:00
DL9RDZ-12026-08-31 00:28:3664.03065-22.28586360°7km/h4855m-16.9m/s-24.3°C93.1%0hPa0V08:18:0000:00:0000:00:00
DL9RDZ-12026-08-31 00:28:2564.03053-22.285890km/h5030m-16.7m/s-25.0°C50.7%0hPa0V08:18:0000:00:0000:00:00
DL9RDZ-12026-08-31 00:28:1464.03053-22.285950km/h5209m-17.2m/s-25.6°C42.9%0hPa0V08:18:0000:00:0000:00:00
DL9RDZ-12026-08-31 00:28:0864.03052-22.286000km/h5374m-17.1m/s-27.0°C45.5%0hPa0V08:18:0000:00:0000:00:00
DL9RDZ-12026-08-31 00:27:5164.03059-22.2863254°7km/h5736m-17.3m/s-29.8°C54.8%0hPa0V08:18:0000:00:0000:00:00
DL9RDZ-12026-08-31 00:27:3264.03045-22.2867560°11km/h5904m-17.1m/s-31.2°C60.5%0hPa0V08:18:0000:00:0000:00:00
DL9RDZ-12026-08-31 00:27:2164.03023-22.2875957°20km/h6088m-17.2m/s-32.6°C66.8%0hPa0V08:19:0000:00:0000:00:00
DL9RDZ-12026-08-31 00:27:1264.02993-22.2888568°26km/h6258m-17.3m/s-33.7°C60.3%0hPa0V08:19:0000:00:0000:00:00
DL9RDZ-12026-08-31 00:27:0164.02976-22.2902380°22km/h6428m-17.4m/s-35.1°C60.4%0hPa0V08:19:0000:00:0000:00:00
DL9RDZ-12026-08-31 00:26:5064.02966-22.2916379°24km/h6618m-18.3m/s-36.5°C50.3%0hPa0V08:19:0000:00:0000:00:00
DL9RDZ-12026-08-31 00:26:4064.02958-22.2928179°20km/h6794m-18.3m/s-38.0°C50.8%0hPa0V08:19:0000:00:0000:00:00
DL9RDZ-12026-08-31 00:26:2964.02946-22.2939576°18km/h6986m-18.3m/s-39.6°C52.5%0hPa0V08:20:0000:00:0000:00:00
DL9RDZ-12026-08-31 00:26:1964.02931-22.2948461°16km/h7166m-18.1m/s-41.2°C61.1%0hPa0V08:20:0000:00:0000:00:00
DL9RDZ-12026-08-31 00:26:0864.02909-22.2957155°16km/h7362m-18.8m/s-43.0°C62.2%0hPa0V08:20:0000:00:0000:00:00
DL9RDZ-12026-08-31 00:25:5764.02880-22.2965853°18km/h7563m-18.9m/s-44.7°C63.1%0hPa0V08:20:0000:00:0000:00:00
DL9RDZ-12026-08-31 00:25:4664.02845-22.2974339°18km/h7766m-18.5m/s-46.4°C65.7%0hPa0V08:21:0000:00:0000:00:00
DL9RDZ-12026-08-31 00:25:3564.02819-22.2982567°13km/h7968m-18.8m/s-47.6°C59.2%0hPa0V08:21:0000:00:0000:00:00
DL9RDZ-12026-08-31 00:25:2564.02805-22.2988347°9km/h8155m-18.2m/s-48.6°C52.5%0hPa0V08:21:0000:00:0000:00:00
DL9RDZ-12026-08-31 00:25:1464.02797-22.2991436°2km/h8361m-19.0m/s-49.0°C42.4%0hPa0V08:21:0000:00:0000:00:00
DL9RDZ-12026-08-31 00:25:0464.02802-22.29933153°4km/h8553m-19.5m/s-50.0°C38.4%0hPa0V08:21:0000:00:0000:00:00
DL9RDZ-12026-08-31 00:24:5464.02820-22.29942171°11km/h8745m-20.0m/s-50.8°C30.7%0hPa0V00:00:0000:00:0000:00:00
DL9RDZ-12026-08-31 00:24:4364.02842-22.29972128°9km/h8960m-19.9m/s-50.7°C24.1%0hPa0V00:00:0000:00:0000:00:00
DL9RDZ-12026-08-31 00:24:2164.02873-22.30082123°15km/h9399m-20.0m/s-49.7°C10.2%0hPa0V00:00:0000:00:0000:00:00
DL9RDZ-12026-08-31 00:24:1064.02883-22.3016099°9km/h9621m-20.4m/s-48.3°C6.7%0hPa0V00:00:0000:00:0000:00:00
DL9RDZ-12026-08-31 00:23:4964.02909-22.30362107°18km/h10060m-22.0m/s-45.1°C2.4%0hPa0V08:23:0000:00:0000:00:00
DL9RDZ-12026-08-31 00:23:3964.02921-22.30452118°15km/h10278m-22.6m/s-44.4°C2.0%0hPa0V08:23:0000:00:0000:00:00
DL9RDZ-12026-08-31 00:23:2964.02933-22.3054795°24km/h10497m-22.8m/s-44.3°C2.0%0hPa0V08:23:0000:00:0000:00:00
DL9RDZ-12026-08-31 00:23:1964.02943-22.30647106°15km/h10721m-23.6m/s-43.9°C1.5%0hPa0V08:23:0000:00:0000:00:00
DL9RDZ-12026-08-31 00:23:0864.02946-22.3076487°18km/h10976m-23.8m/s-43.0°C1.2%0hPa0V08:23:0000:00:0000:00:00
DL9RDZ-12026-08-31 00:22:5864.02938-22.3086481°16km/h11206m-23.6m/s-42.7°C1.1%0hPa0V08:23:0000:00:0000:00:00
DL9RDZ-12026-08-31 00:22:3764.02940-22.3110695°13km/h11697m-23.8m/s-43.0°C1.1%0hPa0V08:23:0000:00:0000:00:00
DL9RDZ-12026-08-31 00:22:2864.02930-22.3120476°20km/h11937m-25.5m/s-42.9°C1.1%0hPa0V08:23:0000:00:0000:00:00
DL9RDZ-12026-08-31 00:22:1664.02921-22.3133381°22km/h12209m-25.4m/s-42.9°C1.0%0hPa0V08:24:0000:00:0000:00:00
DL9RDZ-12026-08-31 00:22:0564.02908-22.3148288°24km/h12489m-25.6m/s-43.5°C1.0%0hPa0V08:24:0000:00:0000:00:00
DL9RDZ-12026-08-31 00:21:5564.02917-22.31611100°22km/h12746m-26.8m/s-43.4°C1.0%0hPa0V08:24:0000:00:0000:00:00
DL9RDZ-12026-08-31 00:21:4564.02917-22.3175394°29km/h13009m-27.1m/s-43.6°C1.0%0hPa0V08:24:0000:00:0000:00:00
DL9RDZ-12026-08-31 00:21:2664.02947-22.3198295°16km/h13518m-27.7m/s-44.0°C1.0%0hPa0V08:25:0000:00:0000:00:00
DL9RDZ-12026-08-31 00:21:1564.02957-22.32134113°26km/h13828m-29.2m/s-43.8°C0.9%0hPa0V08:25:0000:00:0000:00:00
DL9RDZ-12026-08-31 00:21:0564.02982-22.32228128°11km/h14113m-29.8m/s-44.1°C0.9%0hPa0V08:25:0000:00:0000:00:00
DL9RDZ-12026-08-31 00:20:5264.02970-22.3231151°22km/h14494m-29.7m/s-44.1°C0.9%0hPa0V08:25:0000:00:0000:00:00
DL9RDZ-12026-08-31 00:20:4264.02939-22.3244072°27km/h14792m-30.7m/s-43.3°C0.8%0hPa0V08:25:0000:00:0000:00:00
DL9RDZ-12026-08-31 00:20:3264.02921-22.3256150°20km/h15121m-31.7m/s-44.0°C0.9%0hPa0V08:26:0000:00:0000:00:00
DL9RDZ-12026-08-31 00:20:2064.02875-22.3269668°31km/h15458m-31.2m/s-45.4°C1.0%0hPa0V08:26:0000:00:0000:00:00
DL9RDZ-12026-08-31 00:20:0964.02876-22.32868101°26km/h15797m-31.8m/s-45.5°C0.9%0hPa0V08:26:0000:00:0000:00:00
DL9RDZ-12026-08-31 00:19:5264.02886-22.33112102°18km/h16348m-33.8m/s-46.0°C0.9%0hPa0V08:26:0000:00:0000:00:00
DL9RDZ-12026-08-31 00:19:4164.02884-22.3322798°20km/h16710m-34.2m/s-46.2°C0.9%0hPa0V00:00:0000:00:0000:00:00
DL9RDZ-12026-08-31 00:19:3064.02886-22.3334070°18km/h17091m-35.0m/s-46.3°C0.9%0hPa0V00:00:0000:00:0000:00:00
DL9RDZ-12026-08-31 00:19:1064.02846-22.3356960°22km/h17791m-36.1m/s-46.4°C0.9%0hPa0V00:00:0000:00:0000:00:00
DL9RDZ-12026-08-31 00:18:5464.02794-22.3372353°27km/h18383m-38.7m/s-46.3°C0.9%0hPa0V08:28:0000:00:0000:00:00
DL9RDZ-12026-08-31 00:18:4364.02781-22.3388199°22km/h18813m-39.3m/s-46.4°C0.9%0hPa0V08:28:0000:00:0000:00:00
DL9RDZ-12026-08-31 00:18:3364.02777-22.3396664°15km/h19205m-40.6m/s-46.6°C0.9%0hPa0V08:28:0000:00:0000:00:00
DL9RDZ-12026-08-31 00:18:2264.02756-22.3405366°18km/h19645m-40.2m/s-46.3°C0.9%0hPa0V08:28:0000:00:0000:00:00
DL9RDZ-12026-08-31 00:18:1164.02740-22.3415757°18km/h20098m-44.1m/s-45.9°C0.8%0hPa0V08:28:0000:00:0000:00:00
DL9RDZ-12026-08-31 00:18:0064.02686-22.3427153°35km/h20581m-44.9m/s-47.3°C0.9%0hPa0V08:29:0000:00:0000:00:00
DL9RDZ-12026-08-31 00:17:2064.02538-22.3473077°37km/h22403m-50.6m/s-46.7°C0.8%0hPa0V08:29:0000:00:0000:00:00
DL9RDZ-12026-08-31 00:17:0964.02526-22.3491779°20km/h22938m-50.7m/s-46.6°C0.8%0hPa0V00:00:0000:00:0000:00:00
DL9RDZ-12026-08-31 00:16:5864.02498-22.3503063°24km/h23493m-50.3m/s-47.1°C0.8%0hPa0V00:00:0000:00:0000:00:00
DL9RDZ-12026-08-31 00:16:2764.02460-22.3528168°11km/h25185m-60.9m/s-47.2°C0.8%0hPa0V00:00:0000:00:0000:00:00
DL9RDZ-12026-08-31 00:15:4264.02464-22.35171248°16km/h26874m7.9m/s-47.6°C0.8%0hPa0V00:00:0000:00:0000:00:00
DL9RDZ-12026-08-31 00:15:3164.02486-22.35103256°20km/h26798m6.0m/s-47.8°C0.8%0hPa0V00:00:0000:00:0000:00:00
DL9RDZ-12026-08-31 00:15:2064.02538-22.35042191°24km/h26723m8.0m/s-47.9°C0.8%0hPa0V00:00:0000:00:0000:00:00
DL9RDZ-12026-08-31 00:15:1064.02580-22.35045171°15km/h26652m6.5m/s-47.6°C0.8%0hPa0V00:00:0000:00:0000:00:00
DL9RDZ-12026-08-31 00:14:5964.02622-22.35055150°24km/h26576m7.6m/s-47.4°C0.8%0hPa0V00:00:0000:00:0000:00:00
DL9RDZ-12026-08-31 00:14:4764.02650-22.35104145°22km/h26491m6.6m/s-46.9°C0.8%0hPa0V00:00:0000:00:0000:00:00
DL9RDZ-12026-08-31 00:14:3464.02649-22.35126125°13km/h26400m7.0m/s-46.8°C0.8%0hPa0V00:00:0000:00:0000:00:00
DL9RDZ-12026-08-31 00:14:2264.02626-22.3517821°9km/h26314m6.7m/s-47.2°C0.8%0hPa0V00:00:0000:00:0000:00:00
DL9RDZ-12026-08-31 00:14:1164.02567-22.35195348°26km/h26239m8.6m/s-47.1°C0.8%0hPa0V00:00:0000:00:0000:00:00
DL9RDZ-12026-08-31 00:13:5864.02477-22.35156327°38km/h26146m5.9m/s-46.9°C0.8%0hPa0V00:00:0000:00:0000:00:00
DL9RDZ-12026-08-31 00:13:4664.02413-22.35078315°37km/h26065m6.1m/s-46.9°C0.8%0hPa0V00:00:0000:00:0000:00:00
DL9RDZ-12026-08-31 00:13:2864.02346-22.34949298°7km/h25948m7.3m/s-47.1°C0.8%0hPa0V00:00:0000:00:0000:00:00
DL9RDZ-12026-08-31 00:13:1264.02333-22.34897219°5km/h25845m8.2m/s-47.3°C0.8%0hPa0V00:00:0000:00:0000:00:00
DL9RDZ-12026-08-31 00:11:4364.02325-22.3548119°18km/h25292m5.4m/s-48.6°C0.9%0hPa0V00:00:0000:00:0000:00:00
DL9RDZ-12026-08-31 00:11:2564.02251-22.3561242°24km/h25169m5.5m/s-48.8°C0.9%0hPa0V00:00:0000:00:0000:00:00
DL9RDZ-12026-08-31 00:11:1564.02205-22.3565030°13km/h25095m4.0m/s-49.1°C0.9%0hPa0V00:00:0000:00:0000:00:00
DL9RDZ-12026-08-31 00:11:0364.02164-22.35651300°9km/h25024m6.1m/s-49.1°C0.9%0hPa0V00:00:0000:00:0000:00:00
DL9RDZ-12026-08-31 00:10:5264.02151-22.3566115°4km/h24954m5.4m/s-48.6°C0.9%0hPa0V00:00:0000:00:0000:00:00
DL9RDZ-12026-08-31 00:08:5064.01973-22.365650km/h24165m8.1m/s-47.3°C0.8%0hPa0V00:00:0000:00:0000:00:00
DL9RDZ-12026-08-31 00:08:3964.01962-22.3661925°4km/h24097m7.0m/s-47.5°C0.9%0hPa0V00:00:0000:00:0000:00:00
DL9RDZ-12026-08-31 00:08:2964.01946-22.3663246°15km/h24036m6.1m/s-47.8°C0.9%0hPa0V00:00:0000:00:0000:00:00
DL9RDZ-12026-08-31 00:08:1764.01947-22.36662122°9km/h23960m6.1m/s-48.2°C0.9%0hPa0V00:00:0000:00:0000:00:00
DL9RDZ-12026-08-31 00:08:0764.01947-22.36750113°18km/h23900m4.2m/s-48.7°C0.9%0hPa0V00:00:0000:00:0000:00:00
DL9RDZ-12026-08-31 00:07:5764.01964-22.3688487°29km/h23837m5.0m/s-48.8°C1.0%0hPa0V00:00:0000:00:0000:00:00
DL9RDZ-12026-08-31 00:07:4664.01975-22.3709286°29km/h23771m7.1m/s-48.7°C0.9%0hPa0V00:00:0000:00:0000:00:00
DL9RDZ-12026-08-31 00:07:3564.01974-22.3729786°31km/h23702m8.9m/s-48.7°C1.0%0hPa0V00:00:0000:00:0000:00:00
DL9RDZ-12026-08-31 00:07:2564.01946-22.3746969°33km/h23637m6.3m/s-48.3°C0.9%0hPa0V00:00:0000:00:0000:00:00
DL9RDZ-12026-08-31 00:07:1464.01913-22.3763857°33km/h23568m6.2m/s-48.1°C0.9%0hPa0V00:00:0000:00:0000:00:00
DL9RDZ-12026-08-31 00:05:3164.01751-22.38893105°37km/h22910m7.0m/s-48.0°C0.9%0hPa0V00:00:0000:00:0000:00:00
DL9RDZ-12026-08-31 00:05:2064.01758-22.3907090°33km/h22841m6.3m/s-48.2°C0.9%0hPa0V00:00:0000:00:0000:00:00
DL9RDZ-12026-08-31 00:05:0764.01752-22.3937477°38km/h22752m6.2m/s-48.3°C0.9%0hPa0V00:00:0000:00:0000:00:00
DL9RDZ-12026-08-31 00:04:5764.01732-22.3960889°42km/h22690m5.5m/s-48.2°C0.9%0hPa0V00:00:0000:00:0000:00:00
DL9RDZ-12026-08-31 00:04:4764.01707-22.3985977°40km/h22626m6.4m/s-48.1°C1.0%0hPa0V00:00:0000:00:0000:00:00
DL9RDZ-12026-08-31 00:04:3764.01692-22.4015575°42km/h22556m5.8m/s-48.0°C0.9%0hPa0V00:00:0000:00:0000:00:00
DL9RDZ-12026-08-31 00:04:2664.01645-22.4036979°44km/h22487m6.1m/s-47.9°C0.9%0hPa0V00:00:0000:00:0000:00:00
DL9RDZ-12026-08-31 00:04:1564.01608-22.4061169°33km/h22419m6.9m/s-47.6°C0.9%0hPa0V00:00:0000:00:0000:00:00
DL9RDZ-12026-08-31 00:04:0564.01569-22.4079745°33km/h22356m4.9m/s-47.4°C0.9%0hPa0V00:00:0000:00:0000:00:00
DL9RDZ-12026-08-31 00:03:5364.01522-22.4094248°35km/h22285m5.3m/s-47.1°C0.9%0hPa0V00:00:0000:00:0000:00:00
DL9RDZ-12026-08-31 00:03:4364.01465-22.4103742°26km/h22221m7.5m/s-46.9°C0.9%0hPa0V00:00:0000:00:0000:00:00
DL9RDZ-12026-08-31 00:03:3464.01415-22.4112428°20km/h22155m7.3m/s-46.7°C0.9%0hPa0V00:00:0000:00:0000:00:00
DL9RDZ-12026-08-31 00:03:2264.01353-22.4118629°24km/h22086m5.7m/s-46.8°C0.9%0hPa0V00:00:0000:00:0000:00:00
DL9RDZ-12026-08-31 00:03:1564.01309-22.4123158°24km/h22022m7.5m/s-47.3°C0.9%0hPa0V00:00:0000:00:0000:00:00
DL9RDZ-12026-08-31 00:00:5964.00737-22.4234466°11km/h21135m7.8m/s-47.3°C1.0%0hPa0V00:00:0000:00:0000:00:00
DL9RDZ-12026-08-31 00:00:4564.00742-22.4242977°20km/h21067m4.2m/s-47.1°C0.9%0hPa0V00:00:0000:00:0000:00:00
DL9RDZ-12026-08-31 00:00:3564.00738-22.4254691°24km/h20998m5.8m/s-47.7°C1.0%0hPa0V00:00:0000:00:0000:00:00
DL9RDZ-12026-08-31 00:00:2764.00716-22.4268180°20km/h20934m6.4m/s-47.7°C0.9%0hPa0V00:00:0000:00:0000:00:00
DL9RDZ-12026-08-31 00:00:1464.00699-22.4281758°26km/h20865m4.7m/s-47.7°C1.0%0hPa0V00:00:0000:00:0000:00:00
DL9RDZ-12026-08-31 00:00:0264.00654-22.4295142°31km/h20799m5.6m/s-47.9°C1.0%0hPa0V00:00:0000:00:0000:00:00
DL9RDZ-12026-08-30 23:59:5064.00607-22.4309144°31km/h20731m4.7m/s-48.2°C1.0%0hPa0V00:00:0000:00:0000:00:00
DL9RDZ-12026-08-30 23:59:2164.00400-22.4352429°38km/h20552m3.6m/s-47.5°C1.0%0hPa0V00:00:0000:00:0000:00:00
DL9RDZ-12026-08-30 23:58:5864.00242-22.4372421°26km/h20403m6.9m/s-47.0°C1.0%0hPa0V00:00:0000:00:0000:00:00
DL9RDZ-12026-08-30 23:57:2364.00105-22.4464481°24km/h19810m5.3m/s-47.1°C1.0%0hPa0V00:00:0000:00:0000:00:00
DL9RDZ-12026-08-30 23:57:1364.00089-22.4477365°18km/h19739m7.3m/s-47.2°C1.0%0hPa0V00:00:0000:00:0000:00:00
DL9RDZ-12026-08-30 23:57:0064.00063-22.4488062°18km/h19662m5.8m/s-47.8°C1.0%0hPa0V00:00:0000:00:0000:00:00
DL9RDZ-12026-08-30 23:56:5064.00050-22.4498563°11km/h19594m4.7m/s-48.0°C1.0%0hPa0V00:00:0000:00:0000:00:00
DL9RDZ-12026-08-30 23:56:3364.00034-22.4513666°5km/h19497m5.8m/s-47.9°C1.0%0hPa0V00:00:0000:00:0000:00:00
DL9RDZ-12026-08-30 23:56:1564.00014-22.4523780°15km/h19383m4.9m/s-47.4°C1.0%0hPa0V00:00:0000:00:0000:00:00
DL9RDZ-12026-08-30 23:56:0563.99998-22.4533478°11km/h19322m4.3m/s-47.6°C1.1%0hPa0V00:00:0000:00:0000:00:00
DL9RDZ-12026-08-30 23:55:5463.99992-22.4544072°18km/h19256m7.4m/s-47.4°C1.0%0hPa0V00:00:0000:00:0000:00:00
DL9RDZ-12026-08-30 23:55:4463.99984-22.4551782°11km/h19184m7.0m/s-47.0°C1.0%0hPa0V00:00:0000:00:0000:00:00
DL9RDZ-12026-08-30 23:55:3463.99971-22.4556491°9km/h19122m6.2m/s-46.7°C1.0%0hPa0V00:00:0000:00:0000:00:00
DL9RDZ-12026-08-30 23:55:2263.99959-22.4563483°7km/h19057m5.6m/s-46.7°C1.0%0hPa0V00:00:0000:00:0000:00:00
DL9RDZ-12026-08-30 23:55:1263.99956-22.4571793°18km/h18994m6.0m/s-46.7°C1.0%0hPa0V00:00:0000:00:0000:00:00
DL9RDZ-12026-08-30 23:55:0363.99967-22.45814103°20km/h18931m5.3m/s-46.7°C1.0%0hPa0V00:00:0000:00:0000:00:00
DL9RDZ-12026-08-30 23:54:3163.99962-22.4623970°31km/h18741m6.3m/s-47.1°C1.0%0hPa0V00:00:0000:00:0000:00:00
DL9RDZ-12026-08-30 23:54:2163.99937-22.4637150°20km/h18682m4.8m/s-47.0°C1.0%0hPa0V00:00:0000:00:0000:00:00
DL9RDZ-12026-08-30 23:54:1063.99899-22.4652780°29km/h18617m4.4m/s-47.2°C1.0%0hPa0V00:00:0000:00:0000:00:00
DL9RDZ-12026-08-30 23:54:0063.99866-22.4666962°33km/h18561m4.4m/s-47.1°C1.0%0hPa0V00:00:0000:00:0000:00:00
DL9RDZ-12026-08-30 23:53:4963.99817-22.4683061°24km/h18500m6.5m/s-47.1°C1.0%0hPa0V00:00:0000:00:0000:00:00
DL9RDZ-12026-08-30 23:53:3863.99762-22.4693640°22km/h18435m7.3m/s-46.8°C1.0%0hPa0V00:00:0000:00:0000:00:00
DL9RDZ-12026-08-30 23:53:2863.99714-22.4701325°20km/h18379m7.1m/s-46.7°C1.0%0hPa0V00:00:0000:00:0000:00:00
DL9RDZ-12026-08-30 23:53:1763.99659-22.4702918km/h18312m4.9m/s-46.7°C1.0%0hPa0V00:00:0000:00:0000:00:00
DL9RDZ-12026-08-30 23:51:2963.99385-22.4803271°22km/h17706m5.5m/s-47.2°C1.0%0hPa0V00:00:0000:00:0000:00:00
DL9RDZ-12026-08-30 23:51:1963.99355-22.4813261°20km/h17649m4.3m/s-47.3°C1.1%0hPa0V00:00:0000:00:0000:00:00
DL9RDZ-12026-08-30 23:50:4363.99284-22.4866459°29km/h17442m7.0m/s-47.7°C1.1%0hPa0V00:00:0000:00:0000:00:00
DL9RDZ-12026-08-30 23:50:3363.99243-22.4878957°24km/h17382m5.9m/s-47.5°C1.1%0hPa0V00:00:0000:00:0000:00:00
DL9RDZ-12026-08-30 23:50:2263.99194-22.4891045°29km/h17317m4.0m/s-47.6°C1.1%0hPa0V00:00:0000:00:0000:00:00
DL9RDZ-12026-08-30 23:50:1163.99162-22.4899360°15km/h17252m5.0m/s-47.2°C1.1%0hPa0V00:00:0000:00:0000:00:00
DL9RDZ-12026-08-30 23:50:0163.99145-22.4906469°18km/h17193m4.9m/s-46.8°C1.1%0hPa0V00:00:0000:00:0000:00:00
DL9RDZ-12026-08-30 23:49:5163.99135-22.4911873°4km/h17135m4.7m/s-46.7°C1.1%0hPa0V00:00:0000:00:0000:00:00
DL9RDZ-12026-08-30 23:49:4163.99132-22.4918489°7km/h17077m6.7m/s-46.5°C1.0%0hPa0V00:00:0000:00:0000:00:00
DL9RDZ-12026-08-30 23:49:3163.99143-22.49233104°18km/h17012m4.4m/s-46.1°C1.1%0hPa0V00:00:0000:00:0000:00:00
DL9RDZ-12026-08-30 23:49:2063.99163-22.49321130°13km/h16949m4.8m/s-45.8°C1.0%0hPa0V00:00:0000:00:0000:00:00
DL9RDZ-12026-08-30 23:49:0863.99186-22.49415129°18km/h16886m6.8m/s-45.8°C1.0%0hPa0V00:00:0000:00:0000:00:00
DL9RDZ-12026-08-30 23:48:5863.99212-22.49540105°27km/h16821m5.5m/s-45.6°C1.0%0hPa0V00:00:0000:00:0000:00:00
DL9RDZ-12026-08-30 23:47:3963.99208-22.5046282°20km/h16379m5.3m/s-45.9°C1.1%0hPa0V00:00:0000:00:0000:00:00
DL9RDZ-12026-08-30 23:47:2863.99216-22.5058995°18km/h16316m4.7m/s-45.6°C1.0%0hPa0V00:00:0000:00:0000:00:00
DL9RDZ-12026-08-30 23:46:5763.99251-22.5103488°27km/h16143m7.1m/s-45.9°C1.1%0hPa0V00:00:0000:00:0000:00:00
DL9RDZ-12026-08-30 23:46:4763.99258-22.51216101°29km/h16086m5.4m/s-45.7°C1.0%0hPa0V00:00:0000:00:0000:00:00
DL9RDZ-12026-08-30 23:46:3763.99256-22.5140596°24km/h16027m6.8m/s-45.8°C1.1%0hPa0V00:00:0000:00:0000:00:00
DL9RDZ-12026-08-30 23:46:2563.99255-22.5155679°24km/h15964m5.4m/s-45.8°C1.1%0hPa0V00:00:0000:00:0000:00:00
DL9RDZ-12026-08-30 23:46:1463.99243-22.5172984°31km/h15902m6.8m/s-45.5°C1.1%0hPa0V00:00:0000:00:0000:00:00
DL9RDZ-12026-08-30 23:46:0363.99245-22.5193793°35km/h15839m6.1m/s-45.1°C1.0%0hPa0V00:00:0000:00:0000:00:00
DL9RDZ-12026-08-30 23:45:5263.99255-22.52148104°31km/h15778m5.6m/s-45.1°C1.0%0hPa0V00:00:0000:00:0000:00:00
DL9RDZ-12026-08-30 23:45:4263.99276-22.52325111°31km/h15720m5.1m/s-45.0°C1.1%0hPa0V00:00:0000:00:0000:00:00
DL9RDZ-12026-08-30 23:45:3163.99292-22.5251594°31km/h15658m4.7m/s-44.9°C1.0%0hPa0V00:00:0000:00:0000:00:00
DL9RDZ-12026-08-30 23:45:2163.99301-22.5270682°33km/h15606m3.8m/s-45.0°C1.0%0hPa0V00:00:0000:00:0000:00:00
DL9RDZ-12026-08-30 23:45:1063.99291-22.5291278°37km/h15548m7.1m/s-45.1°C1.1%0hPa0V00:00:0000:00:0000:00:00
DL9RDZ-12026-08-30 23:44:5963.99262-22.5313668°38km/h15485m5.2m/s-45.2°C1.1%0hPa0V00:00:0000:00:0000:00:00
DL9RDZ-12026-08-30 23:44:4863.99223-22.5332263°35km/h15423m5.7m/s-45.0°C1.1%0hPa0V00:00:0000:00:0000:00:00
DL9RDZ-12026-08-30 23:44:3763.99166-22.5350140°33km/h15363m6.0m/s-44.8°C1.1%0hPa0V00:00:0000:00:0000:00:00
DL9RDZ-12026-08-30 23:44:2663.99098-22.5363045°27km/h15304m5.5m/s-44.6°C1.1%0hPa0V00:00:0000:00:0000:00:00
DL9RDZ-12026-08-30 23:44:1563.99044-22.5375649°29km/h15243m6.6m/s-44.6°C1.1%0hPa0V00:00:0000:00:0000:00:00
DL9RDZ-12026-08-30 23:44:0563.99004-22.5384454°22km/h15187m6.6m/s-44.4°C1.0%0hPa0V00:00:0000:00:0000:00:00
DL9RDZ-12026-08-30 23:43:5563.98977-22.5394360°11km/h15130m6.8m/s-44.2°C1.0%0hPa0V00:00:0000:00:0000:00:00
DL9RDZ-12026-08-30 23:43:4563.98957-22.5403280°22km/h15076m4.9m/s-44.0°C1.0%0hPa0V00:00:0000:00:0000:00:00
DL9RDZ-12026-08-30 23:43:3463.98959-22.54151111°18km/h15013m4.5m/s-44.2°C1.1%0hPa0V00:00:0000:00:0000:00:00
DL9RDZ-12026-08-30 23:43:2463.98964-22.5428087°20km/h14961m6.1m/s-44.0°C1.1%0hPa0V00:00:0000:00:0000:00:00
DL9RDZ-12026-08-30 23:43:1363.98962-22.5442594°26km/h14900m5.8m/s-43.8°C1.0%0hPa0V00:00:0000:00:0000:00:00
DL9RDZ-12026-08-30 23:43:0263.98956-22.5457884°26km/h14841m5.2m/s-43.9°C1.0%0hPa0V00:00:0000:00:0000:00:00
DL9RDZ-12026-08-30 23:42:5163.98929-22.5475279°29km/h14785m4.7m/s-44.1°C1.0%0hPa0V00:00:0000:00:0000:00:00
DL9RDZ-12026-08-30 23:42:4163.98911-22.5491276°24km/h14736m4.0m/s-44.4°C1.1%0hPa0V00:00:0000:00:0000:00:00
DL9RDZ-12026-08-30 23:42:3163.98887-22.5502571°24km/h14683m5.6m/s-44.8°C1.1%0hPa0V00:00:0000:00:0000:00:00
DL9RDZ-12026-08-30 23:42:2163.98869-22.5513072°18km/h14625m5.3m/s-45.0°C1.1%0hPa0V00:00:0000:00:0000:00:00
DL9RDZ-12026-08-30 23:41:3963.98831-22.55453130°9km/h14409m4.4m/s-44.6°C1.1%0hPa0V00:00:0000:00:0000:00:00
DL9RDZ-12026-08-30 23:41:2663.98853-22.55514150°11km/h14335m5.8m/s-44.5°C1.1%0hPa0V00:00:0000:00:0000:00:00
DL9RDZ-12026-08-30 23:41:1563.98874-22.55554169°15km/h14279m6.1m/s-44.6°C1.1%0hPa0V00:00:0000:00:0000:00:00
DL9RDZ-12026-08-30 23:41:0463.98914-22.55606133°15km/h14218m5.4m/s-44.9°C1.1%0hPa0V00:00:0000:00:0000:00:00
DL9RDZ-12026-08-30 23:40:5463.98952-22.55675136°20km/h14155m7.2m/s-45.0°C1.1%0hPa0V00:00:0000:00:0000:00:00
DL9RDZ-12026-08-30 23:40:4363.98979-22.55793115°22km/h14093m3.8m/s-45.1°C1.1%0hPa0V00:00:0000:00:0000:00:00
DL9RDZ-12026-08-30 23:40:3263.99003-22.55925117°26km/h14038m5.3m/s-45.1°C1.2%0hPa0V00:00:0000:00:0000:00:00
DL9RDZ-12026-08-30 23:40:2163.99026-22.56076103°26km/h13979m4.5m/s-45.0°C1.2%0hPa0V00:00:0000:00:0000:00:00
DL9RDZ-12026-08-30 23:40:1063.99044-22.56210109°22km/h13918m5.8m/s-44.6°C1.1%0hPa0V00:00:0000:00:0000:00:00
DL9RDZ-12026-08-30 23:39:5963.99054-22.5634591°24km/h13857m4.7m/s-44.2°C1.1%0hPa0V00:00:0000:00:0000:00:00
DL9RDZ-12026-08-30 23:39:4963.99061-22.56485100°29km/h13796m6.7m/s-44.5°C1.2%0hPa0V00:00:0000:00:0000:00:00
DL9RDZ-12026-08-30 23:39:0463.99067-22.5701694°11km/h13539m4.8m/s-44.5°C1.2%0hPa0V00:00:0000:00:0000:00:00
DL9RDZ-12026-08-30 23:38:5463.99071-22.57086115°13km/h13486m3.1m/s-44.3°C1.2%0hPa0V00:00:0000:00:0000:00:00
DL9RDZ-12026-08-30 23:38:4463.99081-22.57165112°18km/h13432m4.3m/s-44.2°C1.2%0hPa0V00:00:0000:00:0000:00:00
DL9RDZ-12026-08-30 23:38:3463.99100-22.57267125°22km/h13379m5.5m/s-44.1°C1.2%0hPa0V00:00:0000:00:0000:00:00
DL9RDZ-12026-08-30 23:38:2463.99136-22.57382134°24km/h13318m5.4m/s-44.0°C1.2%0hPa0V00:00:0000:00:0000:00:00
DL9RDZ-12026-08-30 23:38:1363.99177-22.57528115°27km/h13253m7.0m/s-43.7°C1.2%0hPa0V00:00:0000:00:0000:00:00
DL9RDZ-12026-08-30 23:38:0263.99201-22.57712103°37km/h13190m5.4m/s-43.7°C1.2%0hPa0V00:00:0000:00:0000:00:00
DL9RDZ-12026-08-30 23:37:5063.99218-22.5792387°35km/h13130m5.3m/s-43.8°C1.2%0hPa0V00:00:0000:00:0000:00:00
DL9RDZ-12026-08-30 23:37:3963.99214-22.5813593°31km/h13071m6.5m/s-43.5°C1.2%0hPa0V00:00:0000:00:0000:00:00
DL9RDZ-12026-08-30 23:37:2963.99212-22.5830285°31km/h13016m6.7m/s-43.5°C1.2%0hPa0V00:00:0000:00:0000:00:00
DL9RDZ-12026-08-30 23:37:1863.99195-22.5850080°33km/h12954m4.4m/s-43.4°C1.2%0hPa0V00:00:0000:00:0000:00:00
DL9RDZ-12026-08-30 23:36:5763.99174-22.5879269°18km/h12841m5.0m/s-43.5°C1.2%0hPa0V00:00:0000:00:0000:00:00
DL9RDZ-12026-08-30 23:36:4763.99162-22.5890393°20km/h12786m6.3m/s-43.3°C1.3%0hPa0V00:00:0000:00:0000:00:00
DL9RDZ-12026-08-30 23:36:0763.99216-22.59447106°24km/h12573m4.7m/s-43.2°C1.2%0hPa0V00:00:0000:00:0000:00:00
DL9RDZ-12026-08-30 23:35:5463.99220-22.5963084°26km/h12506m5.5m/s-43.2°C1.2%0hPa0V00:00:0000:00:0000:00:00
DL9RDZ-12026-08-30 23:35:4563.99212-22.5976973°24km/h12453m5.7m/s-43.3°C1.2%0hPa0V00:00:0000:00:0000:00:00
DL9RDZ-12026-08-30 23:35:3463.99188-22.5990376°22km/h12395m5.1m/s-43.2°C1.2%0hPa0V00:00:0000:00:0000:00:00
DL9RDZ-12026-08-30 23:35:2363.99166-22.6000980°18km/h12345m4.0m/s-43.1°C1.2%0hPa0V00:00:0000:00:0000:00:00
DL9RDZ-12026-08-30 23:35:1363.99155-22.6012171°18km/h12288m7.1m/s-43.0°C1.2%0hPa0V00:00:0000:00:0000:00:00
DL9RDZ-12026-08-30 23:35:0063.99147-22.60244108°16km/h12207m5.7m/s-43.1°C1.3%0hPa0V00:00:0000:00:0000:00:00
DL9RDZ-12026-08-30 23:34:5063.99142-22.6032760°18km/h12152m4.8m/s-43.5°C1.3%0hPa0V00:00:0000:00:0000:00:00
DL9RDZ-12026-08-30 23:34:3963.99138-22.6043994°11km/h12094m4.8m/s-43.5°C1.3%0hPa0V00:00:0000:00:0000:00:00
DL9RDZ-12026-08-30 23:34:2863.99138-22.60516101°13km/h12038m5.1m/s-43.5°C1.3%0hPa0V00:00:0000:00:0000:00:00
DL9RDZ-12026-08-30 23:34:1863.99144-22.6060377°13km/h11980m5.9m/s-43.5°C1.3%0hPa0V00:00:0000:00:0000:00:00
DL9RDZ-12026-08-30 23:34:0763.99139-22.6073489°20km/h11924m6.2m/s-43.3°C1.3%0hPa0V00:00:0000:00:0000:00:00
DL9RDZ-12026-08-30 23:33:5563.99135-22.6084288°20km/h11864m5.5m/s-43.2°C1.3%0hPa0V00:00:0000:00:0000:00:00
DL9RDZ-12026-08-30 23:33:4563.99136-22.60921112°13km/h11807m4.2m/s-43.3°C1.4%0hPa0V00:00:0000:00:0000:00:00
DL9RDZ-12026-08-30 23:33:3463.99138-22.6099899°16km/h11755m5.5m/s-43.4°C1.4%0hPa0V00:00:0000:00:0000:00:00
DL9RDZ-12026-08-30 23:33:2363.99163-22.61101135°18km/h11692m5.6m/s-43.1°C1.4%0hPa0V00:00:0000:00:0000:00:00
DL9RDZ-12026-08-30 23:33:1363.99185-22.61187115°20km/h11639m5.4m/s-43.3°C1.4%0hPa0V00:00:0000:00:0000:00:00
DL9RDZ-12026-08-30 23:33:0363.99203-22.61341109°27km/h11583m4.2m/s-43.6°C1.4%0hPa0V00:00:0000:00:0000:00:00
DL9RDZ-12026-08-30 23:32:4663.99203-22.6159081°20km/h11501m4.8m/s-43.5°C1.4%0hPa0V00:00:0000:00:0000:00:00
DL9RDZ-12026-08-30 23:32:3563.99186-22.6171884°20km/h11445m5.5m/s-43.3°C1.4%0hPa0V00:00:0000:00:0000:00:00
DL9RDZ-12026-08-30 23:32:2263.99174-22.6185694°15km/h11377m6.1m/s-43.1°C1.4%0hPa0V00:00:0000:00:0000:00:00
DL9RDZ-12026-08-30 23:32:1363.99167-22.6194992°18km/h11323m3.6m/s-43.4°C1.5%0hPa0V00:00:0000:00:0000:00:00
DL9RDZ-12026-08-30 23:32:0163.99170-22.6204287°22km/h11258m5.6m/s-43.4°C1.5%0hPa0V00:00:0000:00:0000:00:00
DL9RDZ-12026-08-30 23:31:5063.99169-22.6217578°18km/h11196m7.0m/s-43.5°C1.5%0hPa0V00:00:0000:00:0000:00:00
DL9RDZ-12026-08-30 23:31:4063.99166-22.62280103°16km/h11145m3.6m/s-43.5°C1.6%0hPa0V00:00:0000:00:0000:00:00
DL9RDZ-12026-08-30 23:31:2963.99174-22.6246083°31km/h11086m5.6m/s-43.8°C1.7%0hPa0V00:00:0000:00:0000:00:00
DL9RDZ-12026-08-30 23:31:1963.99167-22.6261990°22km/h11020m6.8m/s-43.4°C1.6%0hPa0V00:00:0000:00:0000:00:00
DL9RDZ-12026-08-30 23:31:0863.99171-22.62773100°27km/h10961m5.7m/s-43.2°C1.6%0hPa0V00:00:0000:00:0000:00:00
DL9RDZ-12026-08-30 23:30:4863.99197-22.6309586°27km/h10855m5.8m/s-43.3°C1.7%0hPa0V00:00:0000:00:0000:00:00
DL9RDZ-12026-08-30 23:30:3663.99203-22.63273108°31km/h10802m5.2m/s-43.2°C1.9%0hPa0V00:00:0000:00:0000:00:00
DL9RDZ-12026-08-30 23:30:2663.99224-22.63462123°26km/h10745m5.0m/s-43.4°C1.9%0hPa0V00:00:0000:00:0000:00:00
DL9RDZ-12026-08-30 23:30:1563.99236-22.63586119°24km/h10680m5.0m/s-43.7°C2.0%0hPa0V00:00:0000:00:0000:00:00
DL9RDZ-12026-08-30 23:30:0463.99265-22.63677118°18km/h10623m5.4m/s-43.9°C2.3%0hPa0V00:00:0000:00:0000:00:00
DL9RDZ-12026-08-30 23:29:5463.99270-22.6381071°18km/h10558m5.4m/s-44.5°C2.4%0hPa0V00:00:0000:00:0000:00:00
DL9RDZ-12026-08-30 23:29:4363.99270-22.6395788°27km/h10495m4.7m/s-44.8°C2.5%0hPa0V00:00:0000:00:0000:00:00
DL9RDZ-12026-08-30 23:29:3363.99276-22.64058110°22km/h10435m6.2m/s-45.1°C2.6%0hPa0V00:00:0000:00:0000:00:00
DL9RDZ-12026-08-30 23:29:2263.99293-22.64148113°13km/h10365m8.1m/s-44.9°C2.6%0hPa0V00:00:0000:00:0000:00:00
DL9RDZ-12026-08-30 23:29:1163.99303-22.64254104°13km/h10298m4.3m/s-44.8°C2.7%0hPa0V00:00:0000:00:0000:00:00
DL9RDZ-12026-08-30 23:29:0163.99298-22.6434698°18km/h10244m5.5m/s-45.2°C3.0%0hPa0V00:00:0000:00:0000:00:00
DL9RDZ-12026-08-30 23:28:4963.99300-22.64410106°16km/h10192m5.4m/s-45.2°C3.2%0hPa0V00:00:0000:00:0000:00:00
DL9RDZ-12026-08-30 23:28:3863.99297-22.6451972°18km/h10133m6.3m/s-45.3°C3.3%0hPa0V00:00:0000:00:0000:00:00
DL9RDZ-12026-08-30 23:28:2763.99288-22.6464268°24km/h10073m6.1m/s-45.2°C3.5%0hPa0V00:00:0000:00:0000:00:00
DL9RDZ-12026-08-30 23:28:1863.99283-22.6473795°26km/h10021m3.9m/s-45.1°C4.0%0hPa0V00:00:0000:00:0000:00:00
DL9RDZ-12026-08-30 23:28:0663.99292-22.6484296°18km/h9951m7.7m/s-45.5°C4.6%0hPa0V00:00:0000:00:0000:00:00
DL9RDZ-12026-08-30 23:27:5663.99289-22.6494376°15km/h9888m5.7m/s-46.2°C5.6%0hPa0V00:00:0000:00:0000:00:00
DL9RDZ-12026-08-30 23:27:4663.99307-22.65035104°15km/h9829m5.2m/s-46.5°C5.9%0hPa0V00:00:0000:00:0000:00:00
DL9RDZ-12026-08-30 23:27:3563.99308-22.65143127°15km/h9756m4.5m/s-46.5°C7.5%0hPa0V00:00:0000:00:0000:00:00
DL9RDZ-12026-08-30 23:27:2463.99301-22.6516379°5km/h9688m5.6m/s-47.9°C9.3%0hPa0V00:00:0000:00:0000:00:00
DL9RDZ-12026-08-30 23:27:1363.99327-22.65200125°16km/h9630m4.6m/s-47.9°C9.2%0hPa0V00:00:0000:00:0000:00:00
DL9RDZ-12026-08-30 23:27:0263.99350-22.65279125°13km/h9565m6.4m/s-48.2°C10.0%0hPa0V00:00:0000:00:0000:00:00
DL9RDZ-12026-08-30 23:26:5263.99358-22.65380101°20km/h9512m5.3m/s-48.8°C11.2%0hPa0V00:00:0000:00:0000:00:00
DL9RDZ-12026-08-30 23:26:4163.99372-22.65449133°22km/h9450m5.7m/s-49.0°C13.9%0hPa0V00:00:0000:00:0000:00:00
DL9RDZ-12026-08-30 23:24:5463.99480-22.65861115°16km/h8871m4.7m/s-50.6°C36.6%0hPa0V00:00:0000:00:0000:00:00
DL9RDZ-12026-08-30 23:24:4363.99490-22.6586434°7km/h8801m4.7m/s-50.8°C43.2%0hPa0V00:00:0000:00:0000:00:00
DL9RDZ-12026-08-30 23:24:3363.99482-22.65896197°4km/h8740m5.1m/s-50.8°C43.4%0hPa0V00:00:0000:00:0000:00:00
DL9RDZ-12026-08-30 23:24:2263.99501-22.65925354°7km/h8675m5.9m/s-50.3°C43.6%0hPa0V00:00:0000:00:0000:00:00
DL9RDZ-12026-08-30 23:24:1163.99496-22.6595179°18km/h8618m5.8m/s-50.2°C47.2%0hPa0V00:00:0000:00:0000:00:00
DL9RDZ-12026-08-30 23:24:0163.99495-22.6599992°5km/h8560m5.9m/s-50.1°C49.2%0hPa0V00:00:0000:00:0000:00:00
DL9RDZ-12026-08-30 23:23:5063.99484-22.6607794°15km/h8495m7.5m/s-49.8°C49.3%0hPa0V00:00:0000:00:0000:00:00
DL9RDZ-12026-08-30 23:23:3963.99476-22.6611111km/h8427m7.9m/s-49.7°C53.8%0hPa0V00:00:0000:00:0000:00:00
DL9RDZ-12026-08-30 23:23:2963.99453-22.6613967°13km/h8357m3.3m/s-49.6°C56.7%0hPa0V00:00:0000:00:0000:00:00
DL9RDZ-12026-08-30 23:23:1763.99452-22.6618411km/h8293m4.0m/s-49.2°C58.7%0hPa0V00:00:0000:00:0000:00:00
DL9RDZ-12026-08-30 23:23:0663.99444-22.66228121°11km/h8231m5.2m/s-48.9°C60.4%0hPa0V00:00:0000:00:0000:00:00
DL9RDZ-12026-08-30 23:22:5763.99431-22.662984km/h8177m4.7m/s-48.6°C59.6%0hPa0V00:00:0000:00:0000:00:00
DL9RDZ-12026-08-30 23:22:4663.99428-22.6634014°9km/h8119m5.5m/s-48.2°C59.8%0hPa0V00:00:0000:00:0000:00:00
DL9RDZ-12026-08-30 23:22:3563.99419-22.6638365°7km/h8045m5.8m/s-47.7°C60.1%0hPa0V00:00:0000:00:0000:00:00
DL9RDZ-12026-08-30 23:22:2463.99404-22.6646594°20km/h7971m6.4m/s-47.3°C61.0%0hPa0V00:00:0000:00:0000:00:00
DL9RDZ-12026-08-30 23:22:1463.99399-22.6652592°16km/h7913m5.1m/s-46.9°C60.4%0hPa0V00:00:0000:00:0000:00:00
DL9RDZ-12026-08-30 23:22:0363.99397-22.66643116°22km/h7841m9.3m/s-46.2°C58.0%0hPa0V00:00:0000:00:0000:00:00
DL9RDZ-12026-08-30 23:21:5263.99398-22.6674063°20km/h7774m6.3m/s-45.7°C58.4%0hPa0V00:00:0000:00:0000:00:00
DL9RDZ-12026-08-30 23:21:4263.99379-22.6680154°26km/h7708m4.2m/s-45.4°C68.3%0hPa0V00:00:0000:00:0000:00:00
DL9RDZ-12026-08-30 23:21:3163.99329-22.6686968°20km/h7645m8.9m/s-45.1°C66.2%0hPa0V00:00:0000:00:0000:00:00
DL9RDZ-12026-08-30 23:21:2063.99290-22.66933289°4km/h7580m7.2m/s-44.5°C61.9%0hPa0V00:00:0000:00:0000:00:00
DL9RDZ-12026-08-30 23:21:0963.99264-22.67009103°13km/h7515m6.9m/s-44.2°C56.6%0hPa0V00:00:0000:00:0000:00:00
DL9RDZ-12026-08-30 23:20:5863.99246-22.6712064°24km/h7455m5.0m/s-43.6°C58.5%0hPa0V00:00:0000:00:0000:00:00
DL9RDZ-12026-08-30 23:20:4763.99226-22.6719357°13km/h7386m7.3m/s-42.9°C51.1%0hPa0V00:00:0000:00:0000:00:00
DL9RDZ-12026-08-30 23:20:3763.99218-22.6730673°27km/h7326m5.2m/s-42.4°C53.3%0hPa0V00:00:0000:00:0000:00:00
DL9RDZ-12026-08-30 23:20:2763.99214-22.6737169°13km/h7267m5.2m/s-41.9°C52.6%0hPa0V00:00:0000:00:0000:00:00
DL9RDZ-12026-08-30 23:20:1663.99194-22.6746875°11km/h7197m6.1m/s-41.3°C51.7%0hPa0V00:00:0000:00:0000:00:00
DL9RDZ-12026-08-30 23:20:0563.99169-22.67558103°9km/h7126m5.1m/s-40.7°C50.9%0hPa0V00:00:0000:00:0000:00:00
DL9RDZ-12026-08-30 23:19:5463.99165-22.6766389°22km/h7058m6.2m/s-40.1°C51.0%0hPa0V00:00:0000:00:0000:00:00
DL9RDZ-12026-08-30 23:19:3363.99157-22.6785082°18km/h6955m4.1m/s-39.1°C48.2%0hPa0V00:00:0000:00:0000:00:00
DL9RDZ-12026-08-30 23:19:2363.99144-22.6791892°11km/h6894m4.6m/s-38.5°C47.7%0hPa0V00:00:0000:00:0000:00:00
DL9RDZ-12026-08-30 23:19:1363.99108-22.6800869°16km/h6840m5.3m/s-38.1°C46.3%0hPa0V00:00:0000:00:0000:00:00
DL9RDZ-12026-08-30 23:19:0263.99110-22.6811680°26km/h6781m4.4m/s-37.7°C54.6%0hPa0V00:00:0000:00:0000:00:00
DL9RDZ-12026-08-30 23:18:5163.99097-22.6820979°20km/h6714m4.1m/s-37.2°C56.3%0hPa0V00:00:0000:00:0000:00:00
DL9RDZ-12026-08-30 23:18:4063.99089-22.6829983°15km/h6663m3.8m/s-36.9°C57.5%0hPa0V00:00:0000:00:0000:00:00
DL9RDZ-12026-08-30 23:18:2963.99071-22.6844484°33km/h6603m5.5m/s-36.3°C54.9%0hPa0V00:00:0000:00:0000:00:00
DL9RDZ-12026-08-30 23:18:1863.99062-22.68587113°24km/h6541m4.7m/s-35.8°C54.1%0hPa0V00:00:0000:00:0000:00:00
DL9RDZ-12026-08-30 23:18:0763.99061-22.6877986°33km/h6473m8.5m/s-35.3°C57.0%0hPa0V00:00:0000:00:0000:00:00
DL9RDZ-12026-08-30 23:17:5763.99068-22.68894107°20km/h6420m5.8m/s-34.9°C63.2%0hPa0V00:00:0000:00:0000:00:00
DL9RDZ-12026-08-30 23:17:4563.99073-22.6903298°16km/h6350m3.9m/s-34.4°C66.3%0hPa0V00:00:0000:00:0000:00:00
DL9RDZ-12026-08-30 23:17:3563.99069-22.6916581°33km/h6291m5.8m/s-33.9°C63.1%0hPa0V00:00:0000:00:0000:00:00
DL9RDZ-12026-08-30 23:17:2463.99040-22.6928380°24km/h6232m4.4m/s-33.4°C64.6%0hPa0V00:00:0000:00:0000:00:00
DL9RDZ-12026-08-30 23:17:1463.99027-22.6936739°18km/h6173m6.0m/s-33.0°C65.1%0hPa0V00:00:0000:00:0000:00:00
DL9RDZ-12026-08-30 23:17:0363.98990-22.6943451°16km/h6114m4.1m/s-32.7°C69.8%0hPa0V00:00:0000:00:0000:00:00
DL9RDZ-12026-08-30 23:16:5363.98969-22.6950143°18km/h6050m4.9m/s-32.3°C70.2%0hPa0V00:00:0000:00:0000:00:00
DL9RDZ-12026-08-30 23:16:4263.98956-22.6958279°24km/h5988m5.2m/s-31.8°C69.4%0hPa0V00:00:0000:00:0000:00:00
DL9RDZ-12026-08-30 23:16:3263.98960-22.6966872°18km/h5930m4.8m/s-31.3°C64.2%0hPa0V00:00:0000:00:0000:00:00
DL9RDZ-12026-08-30 23:16:2163.98929-22.6971932°16km/h5867m4.2m/s-30.7°C59.9%0hPa0V00:00:0000:00:0000:00:00
DL9RDZ-12026-08-30 23:16:1163.98907-22.6975569°4km/h5809m8.7m/s-30.2°C55.1%0hPa0V00:00:0000:00:0000:00:00
DL9RDZ-12026-08-30 23:16:0063.98892-22.6980157°4km/h5744m4.3m/s-29.7°C58.0%0hPa0V00:00:0000:00:0000:00:00
DL9RDZ-12026-08-30 23:15:5063.98897-22.6986762°13km/h5689m6.1m/s-29.4°C59.9%0hPa0V00:00:0000:00:0000:00:00
DL9RDZ-12026-08-30 23:15:3963.98911-22.69895175°7km/h5626m7.1m/s-28.9°C58.0%0hPa0V00:00:0000:00:0000:00:00
DL9RDZ-12026-08-30 23:15:2863.98917-22.69897217°9km/h5554m4.2m/s-28.3°C60.9%0hPa0V00:00:0000:00:0000:00:00
DL9RDZ-12026-08-30 23:15:1763.98908-22.69901143°7km/h5488m4.8m/s-27.9°C56.0%0hPa0V00:00:0000:00:0000:00:00
DL9RDZ-12026-08-30 23:15:0763.98923-22.69928152°5km/h5427m6.9m/s-27.5°C50.7%0hPa0V00:00:0000:00:0000:00:00
DL9RDZ-12026-08-30 23:14:5663.98915-22.69956352°7km/h5360m6.4m/s-27.1°C46.4%0hPa0V00:00:0000:00:0000:00:00
DL9RDZ-12026-08-30 23:14:4563.98921-22.6996957°9km/h5294m5.7m/s-26.6°C49.1%0hPa0V00:00:0000:00:0000:00:00
DL9RDZ-12026-08-30 23:14:3463.98918-22.69990310°5km/h5229m4.7m/s-26.1°C50.8%0hPa0V00:00:0000:00:0000:00:00
DL9RDZ-12026-08-30 23:14:2463.98919-22.7000353°5km/h5164m6.1m/s-25.5°C47.7%0hPa0V00:00:0000:00:0000:00:00
DL9RDZ-12026-08-30 23:14:1363.98928-22.70012131°11km/h5096m5.9m/s-25.0°C38.6%0hPa0V00:00:0000:00:0000:00:00
DL9RDZ-12026-08-30 23:14:0263.98931-22.70032262°4km/h5027m8.1m/s-25.1°C59.8%0hPa0V00:00:0000:00:0000:00:00
DL9RDZ-12026-08-30 23:13:5163.98932-22.7004984°9km/h4958m4.9m/s-24.9°C81.7%0hPa0V00:00:0000:00:0000:00:00
DL9RDZ-12026-08-30 23:13:4063.98895-22.70039326°16km/h4889m6.2m/s-24.5°C86.1%0hPa0V00:00:0000:00:0000:00:00
DL9RDZ-12026-08-30 23:13:2963.98867-22.70053353°16km/h4816m6.0m/s-23.9°C92.1%0hPa0V00:00:0000:00:0000:00:00
DL9RDZ-12026-08-30 23:13:1863.98843-22.70056336°22km/h4750m6.9m/s-23.3°C91.9%0hPa0V00:00:0000:00:0000:00:00
DL9RDZ-12026-08-30 23:13:0863.98805-22.7000819°5km/h4680m5.6m/s-22.8°C93.1%0hPa0V00:00:0000:00:0000:00:00
DL9RDZ-12026-08-30 23:12:4863.98767-22.69969308°13km/h4559m5.9m/s-21.7°C84.7%0hPa0V00:00:0000:00:0000:00:00
DL9RDZ-12026-08-30 23:12:3663.98754-22.69938227°4km/h4491m4.7m/s-21.1°C73.7%0hPa0V00:00:0000:00:0000:00:00
DL9RDZ-12026-08-30 23:12:2663.98741-22.69894290°13km/h4423m6.2m/s-20.5°C69.3%0hPa0V00:00:0000:00:0000:00:00
DL9RDZ-12026-08-30 23:12:1563.98711-22.69855314°24km/h4366m5.4m/s-19.9°C65.4%0hPa0V00:00:0000:00:0000:00:00
DL9RDZ-12026-08-30 23:12:0563.98698-22.69761267°13km/h4306m5.0m/s-19.4°C64.8%0hPa0V00:00:0000:00:0000:00:00
DL9RDZ-12026-08-30 23:11:5463.98673-22.69674292°22km/h4241m7.9m/s-18.9°C65.0%0hPa0V00:00:0000:00:0000:00:00
DL9RDZ-12026-08-30 23:11:4363.98653-22.69582259°13km/h4175m6.5m/s-18.3°C63.1%0hPa0V00:00:0000:00:0000:00:00
DL9RDZ-12026-08-30 23:11:3263.98621-22.69510313°26km/h4111m4.6m/s-17.9°C65.8%0hPa0V00:00:0000:00:0000:00:00
DL9RDZ-12026-08-30 23:11:2163.98580-22.69444307°11km/h4049m5.3m/s-17.3°C64.7%0hPa0V00:00:0000:00:0000:00:00
DL9RDZ-12026-08-30 23:11:1163.98552-22.69382302°24km/h3986m5.5m/s-17.2°C78.1%0hPa0V00:00:0000:00:0000:00:00
DL9RDZ-12026-08-30 23:11:0163.98546-22.69290251°13km/h3921m5.7m/s-16.7°C78.2%0hPa0V00:00:0000:00:0000:00:00
DL9RDZ-12026-08-30 23:10:5063.98537-22.69179288°24km/h3852m5.1m/s-16.1°C75.8%0hPa0V00:00:0000:00:0000:00:00
DL9RDZ-12026-08-30 23:10:3963.98519-22.69070289°31km/h3787m8.3m/s-15.6°C77.0%0hPa0V00:00:0000:00:0000:00:00
DL9RDZ-12026-08-30 23:10:2863.98503-22.68917283°20km/h3717m4.8m/s-15.1°C73.7%0hPa0V00:00:0000:00:0000:00:00
DL9RDZ-12026-08-30 23:10:1863.98486-22.68823328°24km/h3655m7.3m/s-14.9°C76.5%0hPa0V00:00:0000:00:0000:00:00
DL9RDZ-12026-08-30 23:10:0763.98447-22.68675276°31km/h3586m5.8m/s-14.3°C71.5%0hPa0V00:00:0000:00:0000:00:00
DL9RDZ-12026-08-30 23:09:5763.98424-22.68547318°22km/h3522m5.9m/s-13.9°C71.5%0hPa0V00:00:0000:00:0000:00:00
DL9RDZ-12026-08-30 23:09:4563.98395-22.68412316°27km/h3455m6.7m/s-13.3°C67.8%0hPa0V00:00:0000:00:0000:00:00
DL9RDZ-12026-08-30 23:09:3463.98368-22.68306315°27km/h3395m5.0m/s-13.0°C71.4%0hPa0V00:00:0000:00:0000:00:00
DL9RDZ-12026-08-30 23:09:2363.98337-22.68181304°26km/h3331m8.1m/s-12.4°C70.8%0hPa0V00:00:0000:00:0000:00:00
DL9RDZ-12026-08-30 23:07:5763.98181-22.67267299°29km/h2822m7.4m/s-8.7°C69.2%0hPa0V00:00:0000:00:0000:00:00
DL9RDZ-12026-08-30 23:07:3663.98141-22.67043291°35km/h2701m5.0m/s-7.7°C67.3%0hPa0V00:00:0000:00:0000:00:00
DL9RDZ-12026-08-30 23:07:2563.98127-22.66927263°24km/h2641m5.2m/s-7.2°C67.3%0hPa0V00:00:0000:00:0000:00:00
DL9RDZ-12026-08-30 23:07:1463.98114-22.66788288°26km/h2573m4.9m/s-6.7°C72.0%0hPa0V00:00:0000:00:0000:00:00
DL9RDZ-12026-08-30 23:07:0463.98103-22.66678307°15km/h2519m5.0m/s-6.3°C76.5%0hPa0V00:00:0000:00:0000:00:00
DL9RDZ-12026-08-30 23:06:5363.98082-22.66583271°11km/h2462m6.4m/s-6.3°C81.7%0hPa0V00:00:0000:00:0000:00:00
DL9RDZ-12026-08-30 23:06:4263.98042-22.66461307°16km/h2400m4.9m/s-6.2°C86.4%0hPa0V00:00:0000:00:0000:00:00
DL9RDZ-12026-08-30 23:06:2163.97955-22.66214302°31km/h2283m6.7m/s-5.5°C87.2%0hPa0V00:00:0000:00:0000:00:00
DL9RDZ-12026-08-30 23:06:1063.97920-22.66090313°27km/h2220m5.2m/s-5.1°C88.0%0hPa0V00:00:0000:00:0000:00:00
DL9RDZ-12026-08-30 23:06:0063.97882-22.65957300°29km/h2160m8.4m/s-4.8°C84.9%0hPa0V00:00:0000:00:0000:00:00
DL9RDZ-12026-08-30 23:05:5063.97824-22.65828317°27km/h2099m7.2m/s-4.5°C83.4%0hPa0V00:00:0000:00:0000:00:00
DL9RDZ-12026-08-30 23:05:3863.97766-22.65679314°42km/h2028m5.4m/s-4.3°C91.0%0hPa0V00:00:0000:00:0000:00:00
DL9RDZ-12026-08-30 23:05:2763.97707-22.65549305°37km/h1967m6.3m/s-3.9°C90.8%0hPa0V00:00:0000:00:0000:00:00
DL9RDZ-12026-08-30 23:05:1663.97661-22.65392308°33km/h1898m7.5m/s-3.3°C88.2%0hPa0V00:00:0000:00:0000:00:00
DL9RDZ-12026-08-30 23:05:0663.97639-22.65232282°26km/h1836m3.2m/s0°C0%0hPa0V00:00:0000:00:0000:00:00
DL9RDZ-12026-08-30 23:04:5563.97599-22.65084311°31km/h1767m6.7m/s0°C0%0hPa0V00:00:0000:00:0000:00:00
DL9RDZ-12026-08-30 23:04:4463.97543-22.64970311°18km/h1702m5.5m/s0°C0%0hPa0V00:00:0000:00:0000:00:00
DL9RDZ-12026-08-30 23:04:3463.97497-22.64842315°22km/h1647m7.7m/s0°C0%0hPa0V00:00:0000:00:0000:00:00
DL9RDZ-12026-08-30 23:04:2363.97452-22.64729323°22km/h1579m5.3m/s0°C0%0hPa0V00:00:0000:00:0000:00:00


GPX KML Map

© wettersonde.net (DO2JMG) - 2026  -  -